Terminal Aerodrome Forecast
Issued by NWS Spokane, WA

Home | Current Version | Previous Version | Text Only | Print | Product List | Glossary On
Versions: 1 2 3 4 5 6 7 8 9 10 11 12 13 14 15 16 17 18 19 20 21 22 23 24 25 26 27
000
FTUS46 KOTX 161740 CCA
TAFLWS
TAF COR
KLWS 161740Z 1618/1718 17004KT P6SM OVC009
     FM162200 VRB03KT P6SM OVC016
     FM170300 16003KT P6SM SCT020
     FM170900 13003KT 1SM BR BKN004=

USA.gov is the U.S. government's official web portal to all federal, state and local government web resources and services.